Time;durP1;ratioP1;P1;durP2;ratioP2;P2;SDS_P1;SDS_P2;PMS_P1;PMS_P2;Temp;Humidity;BMP_temperature;BMP_pressure;BME280_temperature;BME280_humidity;BME280_pressure;Samples;Min_cycle;Max_cycle;Signal;HPM_P1;HPM_P2
2023/12/14 00:02:07;;;;;;;4.27;1.83;;;2.90;99.90;;;;;;5057183;28;20181;-87
2023/12/14 00:04:33;;;;;;;3.00;1.53;;;;;;;;;;5058719;28;20193;-86
2023/12/14 00:06:58;;;;;;;3.33;1.33;;;2.90;99.90;;;;;;5058428;28;20206;-86
2023/12/14 00:09:24;;;;;;;4.13;1.67;;;;;;;;;;5053442;28;20197;-86
2023/12/14 00:11:50;;;;;;;4.63;1.43;;;2.70;99.90;;;;;;5052370;28;20169;-86
2023/12/14 00:14:16;;;;;;;5.73;1.43;;;2.80;99.90;;;;;;5052425;28;20177;-86
2023/12/14 00:16:41;;;;;;;5.77;1.60;;;2.80;99.90;;;;;;5034446;28;20199;-88
2023/12/14 00:19:07;;;;;;;4.73;1.63;;;2.70;99.90;;;;;;5051972;28;20590;-87
2023/12/14 00:21:33;;;;;;;5.87;1.70;;;2.80;99.90;;;;;;5052309;28;20652;-87
2023/12/14 00:23:58;;;;;;;7.13;1.87;;;2.90;99.90;;;;;;5052096;28;20177;-86
2023/12/14 00:26:24;;;;;;;5.83;1.80;;;3.10;99.90;;;;;;5052511;28;20177;-86
2023/12/14 00:28:49;;;;;;;8.53;1.43;;;2.80;99.90;;;;;;5052699;28;20183;-88
2023/12/14 00:31:15;;;;;;;3.83;1.63;;;2.90;99.90;;;;;;5052715;28;20216;-86
2023/12/14 00:33:41;;;;;;;2.87;1.30;;;;;;;;;;5052734;28;20184;-87
2023/12/14 00:36:07;;;;;;;5.50;1.33;;;2.80;99.90;;;;;;5052181;28;20177;-87
2023/12/14 00:38:33;;;;;;;5.27;1.33;;;2.90;99.90;;;;;;5051915;28;20207;-86
2023/12/14 00:40:58;;;;;;;8.13;1.50;;;2.50;99.90;;;;;;5051934;28;20243;-85
2023/12/14 00:43:24;;;;;;;9.33;1.70;;;2.70;99.90;;;;;;5051400;28;20173;-85
2023/12/14 00:45:52;;;;;;;3.63;1.50;;;2.70;99.90;;;;;;5051554;28;20224;-86
2023/12/14 00:48:17;;;;;;;3.53;1.20;;;2.60;99.90;;;;;;5055538;28;20177;-86
2023/12/14 00:50:43;;;;;;;5.93;1.60;;;;;;;;;;5055915;28;20179;-86
2023/12/14 00:53:09;;;;;;;5.37;1.40;;;2.60;99.90;;;;;;5055839;28;20252;-86
2023/12/14 00:55:35;;;;;;;5.07;1.47;;;;;;;;;;5055992;28;20188;-85
2023/12/14 00:58:01;;;;;;;7.30;1.73;;;2.90;99.90;;;;;;5055863;28;20303;-85
2023/12/14 01:00:27;;;;;;;7.10;1.70;;;2.80;99.90;;;;;;5055556;28;20242;-85
2023/12/14 01:02:52;;;;;;;4.13;1.40;;;2.70;99.90;;;;;;5055858;28;20591;-85
2023/12/14 01:05:18;;;;;;;3.10;1.50;;;;;;;;;;5055403;28;20844;-86
2023/12/14 01:07:44;;;;;;;6.23;1.43;;;2.50;99.90;;;;;;5072035;28;20214;-85
2023/12/14 01:10:10;;;;;;;3.87;1.33;;;2.50;99.90;;;;;;5074391;28;20227;-86
2023/12/14 01:12:35;;;;;;;5.80;1.60;;;2.50;99.90;;;;;;5060769;28;20628;-86
2023/12/14 01:15:01;;;;;;;5.47;1.27;;;2.90;99.90;;;;;;5058676;28;20169;-86
2023/12/14 01:17:28;;;;;;;4.77;1.77;;;2.40;99.90;;;;;;5059225;28;20169;-86
2023/12/14 01:19:54;;;;;;;7.23;1.77;;;2.50;99.90;;;;;;5056591;28;20299;-86
2023/12/14 01:22:20;;;;;;;7.07;1.53;;;2.60;99.90;;;;;;5056775;28;20177;-86
2023/12/14 01:24:46;;;;;;;3.50;1.40;;;;;;;;;;5057050;28;20209;-86
2023/12/14 01:27:13;;;;;;;6.43;1.73;;;3.00;99.90;;;;;;5057066;28;20177;-86
2023/12/14 01:29:39;;;;;;;5.40;1.50;;;2.50;99.90;;;;;;5056199;28;20283;-85
2023/12/14 01:32:05;;;;;;;2.23;1.37;;;2.30;99.90;;;;;;5055599;28;20207;-86
2023/12/14 01:34:31;;;;;;;5.60;1.23;;;2.70;99.90;;;;;;5055076;28;20185;-86
2023/12/14 01:36:57;;;;;;;5.27;1.33;;;;;;;;;;5055593;28;20170;-83
2023/12/14 01:39:22;;;;;;;4.87;1.40;;;2.70;99.90;;;;;;5057938;28;20176;-87
2023/12/14 01:41:49;;;;;;;6.07;1.40;;;;;;;;;;5059262;28;20173;-87
2023/12/14 01:44:14;;;;;;;8.87;1.13;;;3.10;99.90;;;;;;5058608;28;20256;-85
2023/12/14 01:46:40;;;;;;;6.27;1.67;;;;;;;;;;5060444;28;20655;-86
2023/12/14 01:49:07;;;;;;;2.53;1.03;;;;;;;;;;5060736;28;20176;-86
2023/12/14 01:51:33;;;;;;;3.87;1.00;;;2.40;99.90;;;;;;5059816;28;20177;-86
2023/12/14 01:53:59;;;;;;;6.73;1.53;;;;;;;;;;5040999;28;20216;-86
2023/12/14 01:56:25;;;;;;;3.70;1.40;;;2.20;99.90;;;;;;5058913;28;20193;-86
2023/12/14 01:58:51;;;;;;;4.60;1.40;;;2.50;99.90;;;;;;5057582;28;20242;-86
2023/12/14 02:01:34;;;;;;;4.90;1.63;;;2.30;99.90;;;;;;5058366;28;20209;-85
2023/12/14 02:04:01;;;;;;;5.10;1.47;;;2.30;99.90;;;;;;5062004;28;20238;-87
2023/12/14 02:06:26;;;;;;;6.10;1.80;;;2.40;99.90;;;;;;5060551;28;20213;-86
2023/12/14 02:08:52;;;;;;;4.63;1.43;;;2.00;99.90;;;;;;5062621;28;20176;-86
2023/12/14 02:11:18;;;;;;;4.87;1.70;;;;;;;;;;5054488;28;20169;-87
2023/12/14 02:13:45;;;;;;;5.00;1.73;;;;;;;;;;5054454;28;20177;-87
2023/12/14 02:16:11;;;;;;;5.17;1.70;;;;;;;;;;5055740;28;20169;-86
2023/12/14 02:18:37;;;;;;;4.40;1.37;;;1.40;99.90;;;;;;5036265;28;20184;-83
2023/12/14 02:21:03;;;;;;;3.70;1.47;;;2.70;99.90;;;;;;5054215;28;20173;-86
2023/12/14 02:23:29;;;;;;;6.33;1.60;;;2.90;99.90;;;;;;5054800;28;20539;-86
2023/12/14 02:25:55;;;;;;;8.13;1.73;;;2.90;99.90;;;;;;5055002;28;20220;-86
2023/12/14 02:28:21;;;;;;;5.03;1.70;;;;;;;;;;5056211;28;20178;-85
2023/12/14 02:30:47;;;;;;;3.60;1.60;;;2.90;99.90;;;;;;5044029;28;20177;-89
2023/12/14 02:33:12;;;;;;;7.60;1.67;;;2.90;99.90;;;;;;5063484;28;20176;-88
2023/12/14 02:35:38;;;;;;;4.67;1.80;;;;;;;;;;5079172;28;20176;-89
2023/12/14 02:38:04;;;;;;;4.70;1.30;;;3.10;99.90;;;;;;5078894;28;20154;-89
2023/12/14 02:40:30;;;;;;;6.17;1.50;;;3.50;99.90;;;;;;5075916;28;20216;-90
2023/12/14 02:42:55;;;;;;;4.07;1.67;;;3.10;99.90;;;;;;5061808;28;20161;-87
2023/12/14 02:45:21;;;;;;;5.10;1.60;;;3.40;99.90;;;;;;5079100;28;20215;-89
2023/12/14 02:47:49;;;;;;;7.77;2.00;;;;;;;;;;5078940;28;20221;-88
2023/12/14 02:50:15;;;;;;;5.33;1.63;;;;;;;;;;5075039;28;20240;-89
2023/12/14 02:52:41;;;;;;;2.77;1.40;;;3.40;99.90;;;;;;5063130;28;20161;-88
2023/12/14 02:55:07;;;;;;;5.60;2.03;;;3.30;99.90;;;;;;5073578;28;20177;-89
2023/12/14 02:57:33;;;;;;;4.77;1.70;;;;;;;;;;5072814;28;20240;-87
2023/12/14 02:59:59;;;;;;;4.40;1.47;;;;;;;;;;5068902;28;20220;-91
2023/12/14 03:02:25;;;;;;;3.67;1.57;;;;;;;;;;5065282;28;20272;-90
2023/12/14 03:04:50;;;;;;;6.40;1.67;;;3.40;99.90;;;;;;5040431;28;20270;-90
2023/12/14 03:07:16;;;;;;;5.07;1.90;;;;;;;;;;5056942;28;20248;-88
2023/12/14 03:09:44;;;;;;;6.47;1.50;;;3.40;99.90;;;;;;5056259;28;20234;-89
2023/12/14 03:12:10;;;;;;;9.20;1.40;;;3.40;99.90;;;;;;5055639;28;20230;-89
2023/12/14 03:14:36;;;;;;;2.83;1.50;;;3.20;99.90;;;;;;5055640;28;20192;-90
2023/12/14 03:17:02;;;;;;;4.27;1.40;;;3.40;99.90;;;;;;5055943;28;20643;-90
2023/12/14 03:19:28;;;;;;;3.63;1.90;;;3.40;99.90;;;;;;5055702;28;20173;-89
2023/12/14 03:21:54;;;;;;;5.40;1.90;;;3.40;99.90;;;;;;5054775;28;20708;-89
2023/12/14 03:24:20;;;;;;;6.97;1.90;;;3.70;99.90;;;;;;5054830;28;20173;-88
2023/12/14 03:26:46;;;;;;;3.33;1.90;;;;;;;;;;5038413;28;20193;-89
2023/12/14 03:29:12;;;;;;;4.90;2.03;;;;;;;;;;5055054;28;20168;-89
2023/12/14 03:31:39;;;;;;;6.73;2.07;;;;;;;;;;5055342;28;20180;-88
2023/12/14 03:34:05;;;;;;;3.87;1.70;;;;;;;;;;5058885;28;20166;-88
2023/12/14 03:36:31;;;;;;;5.87;2.10;;;;;;;;;;5075479;28;20267;-87
2023/12/14 03:38:57;;;;;;;10.10;2.00;;;;;;;;;;5073507;28;20765;-87
2023/12/14 03:41:23;;;;;;;4.83;2.10;;;4.00;99.90;;;;;;5063634;28;20181;-88
2023/12/14 03:43:49;;;;;;;5.90;1.90;;;3.80;99.90;;;;;;5056379;28;20213;-86
2023/12/14 03:46:15;;;;;;;7.40;2.37;;;;;;;;;;5054070;28;20223;-87
2023/12/14 03:48:40;;;;;;;4.13;1.97;;;4.00;99.90;;;;;;5053516;28;20184;-87
2023/12/14 03:51:06;;;;;;;7.37;2.10;;;;;;;;;;5034793;28;20181;-87
2023/12/14 03:53:32;;;;;;;5.40;2.00;;;3.80;99.90;;;;;;5052156;28;20260;-88
2023/12/14 03:55:59;;;;;;;7.90;2.50;;;;;;;;;;5052395;28;20682;-87
2023/12/14 03:58:24;;;;;;;3.40;2.00;;;4.00;99.90;;;;;;5051484;28;20255;-85
2023/12/14 04:00:50;;;;;;;5.63;2.43;;;4.00;99.90;;;;;;5051937;28;20247;-81
2023/12/14 04:03:16;;;;;;;4.07;1.70;;;;;;;;;;5051998;28;20176;-86
2023/12/14 04:05:44;;;;;;;5.10;1.60;;;;;;;;;;5051891;28;20213;-87
2023/12/14 04:08:10;;;;;;;6.20;1.73;;;4.20;99.90;;;;;;5052218;28;20185;-87
2023/12/14 04:10:35;;;;;;;6.53;2.10;;;4.00;99.90;;;;;;5052068;28;20197;-88
2023/12/14 04:13:01;;;;;;;6.17;1.80;;;;;;;;;;5052103;28;20666;-87
2023/12/14 04:15:27;;;;;;;6.10;1.93;;;4.30;99.90;;;;;;5051895;28;20263;-88
2023/12/14 04:17:53;;;;;;;6.30;1.90;;;;;;;;;;5051813;28;20264;-88
2023/12/14 04:20:19;;;;;;;8.10;2.20;;;4.20;99.90;;;;;;5051727;28;20173;-88
2023/12/14 04:22:45;;;;;;;4.13;1.77;;;4.30;99.90;;;;;;5052128;28;20172;-88
2023/12/14 04:25:10;;;;;;;6.40;2.37;;;4.20;99.90;;;;;;5052317;28;20304;-87
2023/12/14 04:27:37;;;;;;;7.17;2.23;;;;;;;;;;5052355;28;20169;-87
2023/12/14 04:30:04;;;;;;;6.63;2.20;;;4.40;99.90;;;;;;5051925;28;20165;-87
2023/12/14 04:32:30;;;;;;;5.27;1.97;;;4.20;99.90;;;;;;5052054;28;20181;-88
2023/12/14 04:34:55;;;;;;;3.80;2.00;;;4.50;99.90;;;;;;5052161;28;20189;-88
2023/12/14 04:37:21;;;;;;;4.67;1.80;;;;;;;;;;5052608;28;20317;-86
2023/12/14 04:39:47;;;;;;;5.27;1.83;;;;;;;;;;5052580;28;20173;-83
2023/12/14 04:42:13;;;;;;;6.03;1.93;;;;;;;;;;5051480;28;20208;-84
2023/12/14 04:44:39;;;;;;;7.70;2.43;;;4.20;99.90;;;;;;5050683;28;20228;-83
2023/12/14 04:47:05;;;;;;;5.77;2.10;;;;;;;;;;5051015;28;20271;-82
2023/12/14 04:49:31;;;;;;;4.90;1.80;;;;;;;;;;5050806;28;20169;-82
2023/12/14 04:51:57;;;;;;;6.07;1.97;;;;;;;;;;5051049;28;20666;-83
2023/12/14 04:54:23;;;;;;;5.80;2.27;;;;;;;;;;5050958;28;20569;-83
2023/12/14 04:56:49;;;;;;;5.53;2.30;;;;;;;;;;5033302;28;20177;-84
2023/12/14 04:59:15;;;;;;;5.93;2.10;;;4.20;99.90;;;;;;5051147;28;20291;-83
2023/12/14 05:01:41;;;;;;;13.07;2.33;;;4.40;99.90;;;;;;5051161;28;20254;-83
2023/12/14 05:04:06;;;;;;;5.83;2.13;;;4.60;99.90;;;;;;5051025;28;20167;-83
2023/12/14 05:06:33;;;;;;;9.43;2.60;;;4.60;99.90;;;;;;5050926;28;20209;-83
2023/12/14 05:09:01;;;;;;;7.90;2.50;;;4.50;99.90;;;;;;5051185;28;20158;-83
2023/12/14 05:11:26;;;;;;;8.90;2.70;;;4.70;99.90;;;;;;5051018;28;20181;-83
2023/12/14 05:13:52;;;;;;;8.33;2.23;;;4.30;99.90;;;;;;5016710;28;20697;-83
2023/12/14 05:16:18;;;;;;;7.57;2.37;;;4.60;99.90;;;;;;5051053;28;20170;-83
2023/12/14 05:18:43;;;;;;;4.83;2.33;;;4.60;99.90;;;;;;5050824;28;20180;-82
2023/12/14 05:21:09;;;;;;;8.00;2.60;;;;;;;;;;5051742;28;20169;-82
2023/12/14 05:23:35;;;;;;;5.77;2.27;;;;;;;;;;5050917;28;20169;-82
2023/12/14 05:26:01;;;;;;;3.87;2.00;;;4.80;99.90;;;;;;5050643;28;20219;-82
2023/12/14 05:28:26;;;;;;;8.40;2.50;;;4.60;99.90;;;;;;5050937;28;20272;-83
2023/12/14 05:30:52;;;;;;;12.40;2.27;;;;;;;;;;5050722;28;20598;-80
2023/12/14 05:33:18;;;;;;;9.40;2.90;;;4.80;99.90;;;;;;5053429;28;20679;-81
2023/12/14 05:35:44;;;;;;;9.07;2.83;;;;;;;;;;5054341;28;20173;-81
2023/12/14 05:38:10;;;;;;;6.70;2.77;;;;;;;;;;5054283;28;20260;-81
2023/12/14 05:40:36;;;;;;;5.47;2.90;;;;;;;;;;5054544;28;20248;-83
2023/12/14 05:43:02;;;;;;;7.60;2.57;;;5.00;99.90;;;;;;5054406;28;20173;-82
2023/12/14 05:45:29;;;;;;;11.13;2.60;;;;;;;;;;5054803;28;20269;-83
2023/12/14 05:47:55;;;;;;;6.80;2.57;;;;;;;;;;5054063;28;20640;-83
2023/12/14 05:50:22;;;;;;;5.63;2.47;;;5.10;99.90;;;;;;5054781;28;20181;-83
2023/12/14 05:52:47;;;;;;;6.77;2.03;;;4.90;99.90;;;;;;5055973;28;20547;-83
2023/12/14 05:55:13;;;;;;;11.87;2.33;;;;;;;;;;5055553;28;20176;-83
2023/12/14 05:57:39;;;;;;;7.13;2.60;;;4.80;99.90;;;;;;5059900;28;20172;-81
2023/12/14 06:00:08;;;;;;;8.40;2.23;;;4.90;99.90;;;;;;5058409;28;20680;-83
2023/12/14 06:02:36;;;;;;;7.30;2.43;;;;;;;;;;5021629;28;20289;-83
2023/12/14 06:05:02;;;;;;;9.90;3.00;;;;;;;;;;5051659;28;20216;-83
2023/12/14 06:07:28;;;;;;;7.73;2.70;;;;;;;;;;5066725;28;20176;-84
2023/12/14 06:09:55;;;;;;;7.63;2.47;;;;;;;;;;5061772;28;20277;-83
2023/12/14 06:12:21;;;;;;;6.30;2.47;;;;;;;;;;5059940;28;20173;-90
2023/12/14 06:14:46;;;;;;;8.27;2.60;;;4.90;99.90;;;;;;5041272;28;20176;-90
2023/12/14 06:17:12;;;;;;;6.17;2.93;;;;;;;;;;5062075;28;20181;-91
2023/12/14 06:19:38;;;;;;;10.20;2.83;;;;;;;;;;5059238;28;20176;-91
2023/12/14 06:22:04;;;;;;;9.23;2.37;;;5.20;99.90;;;;;;5061670;28;20201;-90
2023/12/14 06:24:30;;;;;;;4.23;2.20;;;4.90;99.90;;;;;;5060852;28;20204;-90
2023/12/14 06:26:56;;;;;;;6.63;2.57;;;;;;;;;;5059247;28;20659;-90
2023/12/14 06:29:21;;;;;;;5.73;2.80;;;5.00;99.90;;;;;;5058830;28;20177;-92
2023/12/14 06:31:47;;;;;;;5.60;2.53;;;5.20;99.90;;;;;;5064003;28;20174;-92
2023/12/14 06:34:13;;;;;;;4.40;2.37;;;;;;;;;;5041372;28;20311;-91
2023/12/14 06:36:43;;;;;;;5.10;2.33;;;3.90;99.90;;;;;;5058684;28;20177;-91
2023/12/14 06:39:10;;;;;;;8.57;2.83;;;;;;;;;;5059092;28;20169;-88
2023/12/14 06:41:36;;;;;;;10.67;3.30;;;5.30;99.90;;;;;;5041492;28;20208;-93
2023/12/14 06:44:02;;;;;;;6.90;2.93;;;5.30;99.90;;;;;;5059901;28;20185;-90
2023/12/14 06:46:28;;;;;;;8.60;3.00;;;;;;;;;;5041281;28;20221;-92
2023/12/14 06:48:55;;;;;;;6.80;2.67;;;5.20;99.90;;;;;;5067294;28;20246;-92
2023/12/14 06:51:21;;;;;;;8.37;2.57;;;5.70;99.90;;;;;;5059755;28;20181;-92
2023/12/14 06:53:47;;;;;;;9.43;3.07;;;5.30;99.90;;;;;;5057373;28;20534;-83
2023/12/14 06:56:13;;;;;;;11.77;3.43;;;;;;;;;;5056752;28;20169;-86
2023/12/14 06:58:40;;;;;;;9.97;3.10;;;;;;;;;;5055362;28;20169;-86
2023/12/14 07:01:06;;;;;;;10.10;3.47;;;5.60;99.90;;;;;;5038514;28;20240;-87
2023/12/14 07:03:32;;;;;;;7.10;3.20;;;5.30;99.90;;;;;;5054926;28;20173;-86
2023/12/14 07:05:58;;;;;;;6.23;2.90;;;5.50;99.90;;;;;;5054067;28;20263;-86
2023/12/14 07:08:24;;;;;;;10.27;2.57;;;5.50;99.90;;;;;;5053191;28;20169;-85
2023/12/14 07:10:50;;;;;;;11.90;3.20;;;;;;;;;;5054248;28;20181;-86
2023/12/14 07:13:16;;;;;;;11.60;3.40;;;;;;;;;;5054227;28;20178;-86
2023/12/14 07:15:42;;;;;;;8.43;3.10;;;;;;;;;;5057235;28;20205;-85
2023/12/14 07:18:08;;;;;;;7.90;3.30;;;5.60;99.90;;;;;;5055549;28;20184;-84
2023/12/14 07:20:34;;;;;;;8.87;3.13;;;6.00;99.90;;;;;;5052703;28;20173;-85
2023/12/14 07:22:59;;;;;;;7.03;3.47;;;5.70;99.90;;;;;;5053344;28;20181;-86
2023/12/14 07:25:25;;;;;;;7.17;2.93;;;5.70;99.90;;;;;;5036156;28;20265;-86
2023/12/14 07:27:51;;;;;;;9.70;2.83;;;5.80;99.90;;;;;;5054745;28;20169;-87
2023/12/14 07:30:17;;;;;;;9.87;3.10;;;;;;;;;;5054394;28;20169;-86
2023/12/14 07:32:43;;;;;;;6.80;2.70;;;5.90;99.90;;;;;;5048767;28;20667;-86
2023/12/14 07:35:10;;;;;;;10.13;2.80;;;6.00;99.90;;;;;;5034742;28;20189;-85
2023/12/14 07:37:35;;;;;;;12.77;5.97;;;6.00;99.90;;;;;;5033265;28;20178;-86
2023/12/14 07:40:03;;;;;;;8.90;3.10;;;;;;;;;;5042552;28;20177;-86
2023/12/14 07:42:28;;;;;;;7.43;2.73;;;6.00;99.90;;;;;;5054599;28;20175;-89
2023/12/14 07:44:54;;;;;;;5.80;2.77;;;5.90;99.90;;;;;;5035478;28;20283;-86
2023/12/14 07:47:20;;;;;;;9.97;2.87;;;6.10;99.90;;;;;;5053638;28;20185;-90
2023/12/14 07:49:46;;;;;;;11.93;4.83;;;;;;;;;;5053353;28;20235;-90
2023/12/14 07:52:13;;;;;;;8.57;3.90;;;6.20;99.90;;;;;;5051641;28;20662;-86
2023/12/14 07:54:39;;;;;;;7.77;3.30;;;;;;;;;;5051194;28;20182;-82
2023/12/14 07:57:05;;;;;;;13.37;2.53;;;;;;;;;;5052508;28;20255;-83
2023/12/14 07:59:32;;;;;;;7.13;1.97;;;;;;;;;;5053699;28;20663;-84
2023/12/14 08:01:57;;;;;;;7.97;2.47;;;6.30;99.90;;;;;;5036034;28;20200;-85
2023/12/14 08:04:23;;;;;;;8.20;2.20;;;;;;;;;;5054870;28;20176;-85
2023/12/14 08:06:49;;;;;;;6.07;2.20;;;;;;;;;;5050675;28;20166;-85
2023/12/14 08:09:16;;;;;;;4.47;1.73;;;;;;;;;;5051298;28;20173;-86
2023/12/14 08:11:41;;;;;;;9.57;1.60;;;6.50;99.90;;;;;;5054140;28;20183;-85
2023/12/14 08:14:07;;;;;;;7.73;1.73;;;6.60;99.90;;;;;;5034344;28;20264;-84
2023/12/14 08:16:33;;;;;;;5.93;1.63;;;6.60;99.90;;;;;;5053392;28;20181;-85
2023/12/14 08:18:59;;;;;;;5.83;1.30;;;;;;;;;;5053515;28;20185;-84
2023/12/14 08:21:24;;;;;;;7.13;1.77;;;6.80;99.90;;;;;;5054732;28;20173;-86
2023/12/14 08:23:50;;;;;;;6.13;1.70;;;;;;;;;;5052521;28;20181;-83
2023/12/14 08:26:16;;;;;;;6.50;1.73;;;6.60;99.90;;;;;;5051778;28;20710;-83
2023/12/14 08:28:43;;;;;;;6.73;1.67;;;;;;;;;;5051599;28;20223;-82
2023/12/14 08:31:10;;;;;;;7.13;1.53;;;6.80;99.90;;;;;;5053717;28;20191;-81
2023/12/14 08:33:36;;;;;;;5.47;1.20;;;6.90;99.90;;;;;;5054039;28;20197;-84
2023/12/14 08:36:02;;;;;;;2.33;1.17;;;6.90;99.90;;;;;;5054610;28;20754;-81
2023/12/14 08:38:28;;;;;;;2.87;1.33;;;6.60;99.90;;;;;;5060306;28;20196;-84
2023/12/14 08:40:54;;;;;;;3.27;1.33;;;;;;;;;;5067113;28;20181;-84
2023/12/14 08:43:20;;;;;;;4.37;1.30;;;;;;;;;;5070671;28;20173;-84
2023/12/14 08:45:45;;;;;;;4.00;1.27;;;6.90;99.90;;;;;;5064731;28;20397;-86
2023/12/14 08:48:11;;;;;;;5.77;1.40;;;7.20;99.90;;;;;;5067631;28;20174;-87
2023/12/14 08:50:37;;;;;;;6.50;1.60;;;7.20;99.90;;;;;;5062102;28;20173;-87
2023/12/14 08:53:05;;;;;;;6.20;1.33;;;;;;;;;;5066207;28;20183;-87
2023/12/14 08:55:31;;;;;;;2.93;1.20;;;7.30;99.90;;;;;;5066006;28;20195;-84
2023/12/14 08:57:57;;;;;;;5.43;1.20;;;7.20;99.90;;;;;;5061567;28;20178;-86
2023/12/14 09:00:23;;;;;;;2.77;1.40;;;7.20;99.90;;;;;;5056703;28;20270;-88
2023/12/14 09:02:49;;;;;;;5.03;1.40;;;7.20;99.90;;;;;;5054950;28;20173;-85
2023/12/14 09:05:16;;;;;;;5.37;1.30;;;;;;;;;;5051337;28;20205;-84
2023/12/14 18:00:51;;;;;;;8.63;1.20;;;;;;;;;;5065452;28;20628;-76
2023/12/14 18:03:17;;;;;;;6.87;1.60;;;;;;;;;;5052744;28;20204;-76
2023/12/14 18:05:43;;;;;;;3.90;1.47;;;10.40;99.90;;;;;;5052563;28;20178;-77
2023/12/14 18:08:09;;;;;;;7.70;1.70;;;;;;;;;;5053088;28;20548;-75
2023/12/14 18:10:38;;;;;;;7.40;1.97;;;10.20;99.90;;;;;;5049664;28;20225;-76
2023/12/14 18:13:04;;;;;;;10.03;1.63;;;10.20;99.90;;;;;;5063402;28;20196;-75
2023/12/14 18:15:30;;;;;;;10.33;1.57;;;;;;;;;;5061718;28;20644;-74
2023/12/14 18:17:56;;;;;;;9.00;2.27;;;10.20;99.90;;;;;;5056268;28;20613;-75
2023/12/14 18:20:22;;;;;;;12.87;2.40;;;10.10;99.90;;;;;;5050733;28;20183;-74
2023/12/14 18:22:47;;;;;;;16.60;3.07;;;10.20;99.90;;;;;;5054877;28;20180;-75
2023/12/14 18:25:13;;;;;;;11.90;2.37;;;;;;;;;;5050320;28;20201;-77
2023/12/14 18:27:40;;;;;;;17.87;3.07;;;;;;;;;;5053626;28;20274;-74
2023/12/14 18:30:09;;;;;;;17.70;2.90;;;10.00;99.90;;;;;;5032094;28;20215;-73
2023/12/14 18:32:35;;;;;;;15.37;3.37;;;;;;;;;;5047490;28;20256;-76
2023/12/14 18:35:01;;;;;;;15.77;3.27;;;10.20;99.90;;;;;;5046368;28;20227;-77
2023/12/14 18:37:27;;;;;;;17.93;2.93;;;10.30;99.90;;;;;;5048260;28;20177;-77
2023/12/14 18:39:53;;;;;;;18.00;3.20;;;10.10;99.90;;;;;;5047977;28;20720;-76
2023/12/14 18:42:21;;;;;;;18.50;3.77;;;;;;;;;;5050300;28;20529;-75
2023/12/14 18:44:46;;;;;;;16.23;3.67;;;10.00;99.90;;;;;;5056885;28;20174;-73
2023/12/14 18:47:12;;;;;;;20.57;3.10;;;9.90;99.90;;;;;;5051570;28;20686;-72
2023/12/14 18:49:38;;;;;;;21.60;3.63;;;;;;;;;;5039658;28;20213;-74
2023/12/14 18:52:04;;;;;;;21.17;3.37;;;10.00;99.90;;;;;;5042699;28;20342;-74
2023/12/14 18:54:30;;;;;;;19.43;3.30;;;;;;;;;;5052001;28;20635;-75
2023/12/14 18:56:55;;;;;;;23.10;4.00;;;10.00;99.90;;;;;;5052977;28;20181;-75
2023/12/14 18:59:21;;;;;;;24.90;4.27;;;10.00;99.90;;;;;;5049693;28;20221;-76
2023/12/14 19:01:50;;;;;;;23.97;3.93;;;9.90;99.90;;;;;;5065485;28;20176;-74
2023/12/14 19:04:17;;;;;;;24.83;4.10;;;10.10;99.90;;;;;;5058400;28;20170;-76
2023/12/14 19:06:44;;;;;;;21.70;3.60;;;;;;;;;;5045720;28;20184;-75
2023/12/14 19:09:10;;;;;;;22.70;3.93;;;10.00;99.90;;;;;;5046856;28;20236;-73
2023/12/14 19:11:36;;;;;;;18.73;3.80;;;;;;;;;;5036504;28;20181;-75
2023/12/14 19:14:02;;;;;;;17.33;3.37;;;10.10;99.90;;;;;;5033766;28;20177;-75
2023/12/14 19:16:33;;;;;;;23.40;3.60;;;9.70;99.90;;;;;;5033531;28;20170;-75
2023/12/14 19:19:00;;;;;;;25.33;3.73;;;9.90;99.90;;;;;;5035242;28;20177;-75
2023/12/14 19:21:26;;;;;;;32.30;4.53;;;10.10;99.90;;;;;;5032140;28;20178;-75
2023/12/14 19:23:52;;;;;;;18.17;3.93;;;;;;;;;;5033760;28;20633;-75
2023/12/14 19:26:23;;;;;;;30.07;4.20;;;9.90;99.90;;;;;;5033529;28;20170;-75
2023/12/14 19:28:50;;;;;;;15.07;3.70;;;10.00;99.90;;;;;;5032506;28;20197;-76
2023/12/14 19:31:16;;;;;;;18.17;4.13;;;10.00;99.90;;;;;;5033042;28;20632;-76
2023/12/14 19:33:42;;;;;;;23.30;3.47;;;9.90;99.90;;;;;;5034262;28;20190;-76
2023/12/14 19:36:11;;;;;;;20.77;3.50;;;8.90;99.90;;;;;;5035710;28;20178;-74
2023/12/14 19:38:41;;;;;;;13.20;3.13;;;10.30;99.90;;;;;;5032444;28;20170;-75
2023/12/14 19:41:08;;;;;;;18.17;3.93;;;;;;;;;;5033735;28;20170;-75
2023/12/14 19:43:41;;;;;;;22.60;3.60;;;10.00;99.90;;;;;;5032254;28;20184;-75
2023/12/14 19:46:11;;;;;;;19.80;3.87;;;;;;;;;;5034995;28;20174;-75
2023/12/14 19:48:37;;;;;;;24.00;3.73;;;;;;;;;;5032985;28;20184;-74
2023/12/14 19:51:03;;;;;;;24.07;3.67;;;;;;;;;;5034711;28;20261;-77
2023/12/14 19:53:30;;;;;;;19.43;3.60;;;9.50;99.90;;;;;;5015899;28;20178;-74
2023/12/14 19:55:56;;;;;;;17.10;3.60;;;;;;;;;;5033306;28;20177;-74
2023/12/14 19:58:22;;;;;;;25.67;4.10;;;;;;;;;;5032873;28;20166;-75
2023/12/14 20:00:48;;;;;;;21.20;3.90;;;8.50;99.90;;;;;;5032129;28;20288;-74
2023/12/14 20:03:14;;;;;;;15.63;3.20;;;9.50;99.90;;;;;;5031640;28;20178;-75
2023/12/14 20:05:43;;;;;;;19.47;3.40;;;9.70;99.90;;;;;;5032561;28;20170;-75
2023/12/14 20:08:12;;;;;;;21.03;3.70;;;9.60;99.90;;;;;;5033405;28;20548;-75
2023/12/14 20:10:38;;;;;;;18.40;3.57;;;9.60;99.90;;;;;;5033302;28;20213;-74
2023/12/14 20:13:09;;;;;;;26.87;3.77;;;9.80;99.90;;;;;;5033048;28;20504;-76
2023/12/14 20:15:39;;;;;;;23.57;3.47;;;9.50;99.90;;;;;;5032428;28;20651;-74
2023/12/14 20:18:05;;;;;;;18.70;3.80;;;9.40;99.90;;;;;;5032001;28;20173;-74
2023/12/14 20:20:34;;;;;;;20.77;3.80;;;9.60;99.90;;;;;;5032394;28;20252;-73
2023/12/14 20:23:04;;;;;;;21.97;4.07;;;9.60;99.90;;;;;;5031988;28;20613;-74
2023/12/14 20:25:32;;;;;;;17.67;3.60;;;9.60;99.90;;;;;;5031524;28;20174;-75
2023/12/14 20:27:58;;;;;;;16.07;4.03;;;9.60;99.90;;;;;;5031789;28;20182;-75
2023/12/14 20:30:23;;;;;;;21.27;4.70;;;9.50;99.90;;;;;;5031801;28;20316;-75
2023/12/14 20:32:49;;;;;;;17.07;4.90;;;;;;;;;;5031940;28;20160;-75
2023/12/14 20:35:16;;;;;;;26.80;5.23;;;9.20;99.90;;;;;;5031250;28;20261;-75
2023/12/14 20:37:41;;;;;;;23.97;5.23;;;9.40;99.90;;;;;;5031899;28;20174;-75
2023/12/14 20:40:15;;;;;;;22.67;4.33;;;9.30;99.90;;;;;;5032819;28;20716;-75
2023/12/14 20:42:41;;;;;;;27.27;4.73;;;;;;;;;;5031383;28;20178;-76
2023/12/14 20:45:08;;;;;;;20.37;5.07;;;9.30;99.90;;;;;;5030875;28;20177;-72
2023/12/14 20:47:35;;;;;;;17.80;4.33;;;;;;;;;;5030334;28;20262;-76
2023/12/14 20:50:01;;;;;;;22.17;3.87;;;9.50;99.90;;;;;;5030459;28;20217;-75
2023/12/14 20:52:27;;;;;;;18.87;3.97;;;;;;;;;;5030613;28;20260;-75
2023/12/14 20:54:53;;;;;;;25.83;4.93;;;9.40;99.90;;;;;;5032445;28;20197;-75
2023/12/14 20:57:20;;;;;;;21.83;3.93;;;;;;;;;;5031678;28;20173;-76
2023/12/14 20:59:46;;;;;;;19.60;3.97;;;;;;;;;;5029998;28;20229;-76
2023/12/14 21:02:11;;;;;;;17.73;3.60;;;9.30;99.90;;;;;;5030046;28;20193;-76
2023/12/14 21:04:37;;;;;;;21.33;4.00;;;9.40;99.90;;;;;;5031466;28;20178;-75
2023/12/14 21:07:03;;;;;;;18.83;3.10;;;;;;;;;;5032593;28;20644;-77
2023/12/14 21:09:29;;;;;;;22.63;4.20;;;;;;;;;;5034802;28;20201;-76
2023/12/14 21:11:55;;;;;;;16.90;4.27;;;;;;;;;;5043489;28;20177;-77
2023/12/14 21:14:21;;;;;;;27.63;3.63;;;9.40;99.90;;;;;;5040746;28;20249;-76
2023/12/14 21:16:50;;;;;;;23.00;4.37;;;;;;;;;;5037563;28;20213;-75
2023/12/14 21:19:16;;;;;;;16.90;3.50;;;9.20;99.90;;;;;;5032931;28;20178;-77
2023/12/14 21:21:42;;;;;;;21.57;3.90;;;9.20;99.90;;;;;;5030870;28;20636;-77
2023/12/14 21:24:08;;;;;;;19.87;3.83;;;10.00;99.90;;;;;;5031043;28;20273;-77
2023/12/14 21:26:36;;;;;;;16.37;3.37;;;;;;;;;;5031159;28;20274;-76
2023/12/14 21:29:03;;;;;;;15.07;3.33;;;9.00;99.90;;;;;;5031252;28;20229;-76
2023/12/14 21:31:29;;;;;;;16.03;3.47;;;;;;;;;;5030662;28;20247;-75
2023/12/14 21:33:55;;;;;;;24.57;4.17;;;;;;;;;;5031045;28;20166;-76
2023/12/14 21:36:20;;;;;;;27.03;4.10;;;9.40;99.90;;;;;;5031227;28;20178;-76
2023/12/14 21:38:46;;;;;;;18.93;3.87;;;9.40;99.90;;;;;;5030881;28;20185;-76
2023/12/14 21:41:12;;;;;;;19.83;3.83;;;;;;;;;;5031381;28;20534;-75
2023/12/14 21:43:38;;;;;;;16.07;3.33;;;9.00;99.90;;;;;;5031298;28;20505;-75
2023/12/14 21:46:04;;;;;;;31.03;4.07;;;;;;;;;;5030679;28;20269;-75
2023/12/14 21:48:29;;;;;;;25.40;3.20;;;9.30;99.90;;;;;;5029666;28;20170;-76
2023/12/14 21:50:55;;;;;;;25.73;3.97;;;;;;;;;;5029289;28;20185;-75
2023/12/14 21:53:21;;;;;;;23.20;4.03;;;;;;;;;;5030977;28;20343;-76
2023/12/14 21:55:47;;;;;;;22.60;3.60;;;9.00;99.90;;;;;;5031376;28;20253;-75
2023/12/14 21:58:13;;;;;;;25.93;4.57;;;9.00;99.90;;;;;;5030430;28;20244;-74
2023/12/14 22:00:39;;;;;;;23.83;3.77;;;;;;;;;;5030504;28;20680;-74
2023/12/14 22:03:05;;;;;;;19.53;3.63;;;;;;;;;;5029851;28;20209;-76
2023/12/14 22:05:31;;;;;;;18.87;3.80;;;;;;;;;;5030918;28;20224;-74
2023/12/14 22:07:56;;;;;;;19.47;4.20;;;8.60;99.90;;;;;;5030954;28;20640;-75
2023/12/14 22:10:23;;;;;;;26.50;3.90;;;8.40;99.90;;;;;;5029808;28;20623;-75
2023/12/14 22:12:49;;;;;;;15.87;3.90;;;;;;;;;;5029344;28;20212;-76
2023/12/14 22:15:15;;;;;;;20.00;3.80;;;;;;;;;;5030806;28;20184;-75
2023/12/14 22:17:41;;;;;;;16.67;3.57;;;;;;;;;;5030477;28;20162;-75